sensor_id;sensor_type;location;lat;lon;timestamp;P1;P4;P2;P0;N10;N4;N25;N1;N05;TS
79466;SPS30;68933;49.726;9.226;2024-02-26T00:01:01;7.2;;7.2;6.9;;;;;;
79466;SPS30;68933;49.726;9.226;2024-02-26T00:03:14;5.5;;5.5;5.3;;;;;;
79466;SPS30;68933;49.726;9.226;2024-02-26T00:05:27;5.5;;5.5;5.3;;;;;;
79466;SPS30;68933;49.726;9.226;2024-02-26T00:07:40;5.3;;5.3;5.1;;;;;;
79466;SPS30;68933;49.726;9.226;2024-02-26T00:09:53;5.3;;5.3;5.1;;;;;;
79466;SPS30;68933;49.726;9.226;2024-02-26T00:12:06;4.9;;4.9;4.6;;;;;;
79466;SPS30;68933;49.726;9.226;2024-02-26T00:14:19;4.9;;4.9;4.6;;;;;;
79466;SPS30;68933;49.726;9.226;2024-02-26T00:16:32;4.8;;4.8;4.6;;;;;;
79466;SPS30;68933;49.726;9.226;2024-02-26T00:18:45;4.8;;4.8;4.6;;;;;;
79466;SPS30;68933;49.726;9.226;2024-02-26T00:20:58;4.8;;4.8;4.6;;;;;;
79466;SPS30;68933;49.726;9.226;2024-02-26T00:23:11;4.2;;4.2;4;;;;;;
79466;SPS30;68933;49.726;9.226;2024-02-26T00:33:10;4.2;;4.2;4;;;;;;
79466;SPS30;68933;49.726;9.226;2024-02-26T00:35:23;6.5;;6.5;6.2;;;;;;
79466;SPS30;68933;49.726;9.226;2024-02-26T00:37:36;5.3;;5.3;5;;;;;;
79466;SPS30;68933;49.726;9.226;2024-02-26T00:39:49;5.3;;5.3;5;;;;;;
79466;SPS30;68933;49.726;9.226;2024-02-26T00:42:02;5.1;;5.1;4.8;;;;;;
79466;SPS30;68933;49.726;9.226;2024-02-26T00:44:15;5.1;;5.1;4.8;;;;;;
79466;SPS30;68933;49.726;9.226;2024-02-26T00:46:28;4.1;;4.1;3.9;;;;;;
79466;SPS30;68933;49.726;9.226;2024-02-26T00:48:41;4.1;;4.1;3.9;;;;;;
79466;SPS30;68933;49.726;9.226;2024-02-26T00:50:54;4.1;;4.1;3.9;;;;;;
79466;SPS30;68933;49.726;9.226;2024-02-26T00:53:07;4.1;;4.1;3.9;;;;;;
79466;SPS30;68933;49.726;9.226;2024-02-26T00:55:20;4.1;;4.1;3.9;;;;;;
79466;SPS30;68933;49.726;9.226;2024-02-26T00:57:33;4.3;;4.3;4.1;;;;;;
79466;SPS30;68933;49.726;9.226;2024-02-26T00:59:46;4.3;;4.3;4.1;;;;;;
79466;SPS30;68933;49.726;9.226;2024-02-26T01:01:59;4.2;;4.2;4;;;;;;
79466;SPS30;68933;49.726;9.226;2024-02-26T01:04:12;4.2;;4.2;4;;;;;;
79466;SPS30;68933;49.726;9.226;2024-02-26T01:06:25;4.2;;4.2;4;;;;;;
79466;SPS30;68933;49.726;9.226;2024-02-26T01:08:38;4.2;;4.2;4;;;;;;
79466;SPS30;68933;49.726;9.226;2024-02-26T01:10:51;4.7;;4.7;4.5;;;;;;
79466;SPS30;68933;49.726;9.226;2024-02-26T01:13:04;4.7;;4.7;4.5;;;;;;
79466;SPS30;68933;49.726;9.226;2024-02-26T01:15:17;4.4;;4.4;4.2;;;;;;
79466;SPS30;68933;49.726;9.226;2024-02-26T01:17:30;4.4;;4.4;4.2;;;;;;
79466;SPS30;68933;49.726;9.226;2024-02-26T01:19:43;4.3;;4.3;4.1;;;;;;
79466;SPS30;68933;49.726;9.226;2024-02-26T01:21:56;4.3;;4.3;4.1;;;;;;
79466;SPS30;68933;49.726;9.226;2024-02-26T01:24:09;4.3;;4.3;4.1;;;;;;
79466;SPS30;68933;49.726;9.226;2024-02-26T01:26:22;5.2;;5.2;4.9;;;;;;
79466;SPS30;68933;49.726;9.226;2024-02-26T01:28:35;5.2;;5.2;4.9;;;;;;
79466;SPS30;68933;49.726;9.226;2024-02-26T01:30:48;4.8;;4.8;4.6;;;;;;
79466;SPS30;68933;49.726;9.226;2024-02-26T01:33:01;4.8;;4.8;4.6;;;;;;
79466;SPS30;68933;49.726;9.226;2024-02-26T01:35:14;4.8;;4.8;4.6;;;;;;
79466;SPS30;68933;49.726;9.226;2024-02-26T01:37:27;5.7;;5.7;5.4;;;;;;
79466;SPS30;68933;49.726;9.226;2024-02-26T01:39:40;5.7;;5.7;5.4;;;;;;
79466;SPS30;68933;49.726;9.226;2024-02-26T01:41:53;4.4;;4.4;4.2;;;;;;
79466;SPS30;68933;49.726;9.226;2024-02-26T01:44:06;4.4;;4.4;4.2;;;;;;
79466;SPS30;68933;49.726;9.226;2024-02-26T01:46:19;5;;5;4.8;;;;;;
79466;SPS30;68933;49.726;9.226;2024-02-26T01:48:32;5;;5;4.8;;;;;;
79466;SPS30;68933;49.726;9.226;2024-02-26T01:50:45;5;;5;4.8;;;;;;
79466;SPS30;68933;49.726;9.226;2024-02-26T01:52:58;5.4;;5.4;5.2;;;;;;
79466;SPS30;68933;49.726;9.226;2024-02-26T01:55:11;5.4;;5.4;5.2;;;;;;
79466;SPS30;68933;49.726;9.226;2024-02-26T01:57:24;4.5;;4.5;4.3;;;;;;
79466;SPS30;68933;49.726;9.226;2024-02-26T01:59:37;4.5;;4.5;4.3;;;;;;
79466;SPS30;68933;49.726;9.226;2024-02-26T02:01:54;4.5;;4.5;4.3;;;;;;
79466;SPS30;68933;49.726;9.226;2024-02-26T02:04:03;5.5;;5.5;5.3;;;;;;
79466;SPS30;68933;49.726;9.226;2024-02-26T02:06:16;5.5;;5.5;5.3;;;;;;
79466;SPS30;68933;49.726;9.226;2024-02-26T02:08:29;4.7;;4.7;4.5;;;;;;
79466;SPS30;68933;49.726;9.226;2024-02-26T02:10:42;4.7;;4.7;4.5;;;;;;
79466;SPS30;68933;49.726;9.226;2024-02-26T02:12:55;4.9;;4.9;4.7;;;;;;
79466;SPS30;68933;49.726;9.226;2024-02-26T02:15:08;4.9;;4.9;4.7;;;;;;
79466;SPS30;68933;49.726;9.226;2024-02-26T02:17:21;4.9;;4.9;4.7;;;;;;
79466;SPS30;68933;49.726;9.226;2024-02-26T02:19:34;4.8;;4.8;4.5;;;;;;
79466;SPS30;68933;49.726;9.226;2024-02-26T02:21:47;4.8;;4.8;4.5;;;;;;
79466;SPS30;68933;49.726;9.226;2024-02-26T02:24:00;5.3;;5.3;5;;;;;;
79466;SPS30;68933;49.726;9.226;2024-02-26T02:26:13;5.3;;5.3;5;;;;;;
79466;SPS30;68933;49.726;9.226;2024-02-26T02:28:26;5.6;;5.6;5.3;;;;;;
79466;SPS30;68933;49.726;9.226;2024-02-26T02:30:39;5.6;;5.6;5.3;;;;;;
79466;SPS30;68933;49.726;9.226;2024-02-26T02:32:52;5.6;;5.6;5.3;;;;;;
79466;SPS30;68933;49.726;9.226;2024-02-26T02:35:05;4.9;;4.9;4.6;;;;;;
79466;SPS30;68933;49.726;9.226;2024-02-26T02:37:18;4.9;;4.9;4.6;;;;;;
79466;SPS30;68933;49.726;9.226;2024-02-26T02:39:31;5.7;;5.7;5.4;;;;;;
79466;SPS30;68933;49.726;9.226;2024-02-26T02:41:44;5.7;;5.7;5.4;;;;;;
79466;SPS30;68933;49.726;9.226;2024-02-26T02:43:57;5.3;;5.3;5;;;;;;
79466;SPS30;68933;49.726;9.226;2024-02-26T02:46:10;5.3;;5.3;5;;;;;;
79466;SPS30;68933;49.726;9.226;2024-02-26T02:48:23;5.3;;5.3;5;;;;;;
79466;SPS30;68933;49.726;9.226;2024-02-26T02:50:36;5.4;;5.4;5.2;;;;;;
79466;SPS30;68933;49.726;9.226;2024-02-26T02:52:49;5.4;;5.4;5.2;;;;;;
79466;SPS30;68933;49.726;9.226;2024-02-26T02:55:02;5.7;;5.7;5.4;;;;;;
79466;SPS30;68933;49.726;9.226;2024-02-26T02:57:15;5.7;;5.7;5.4;;;;;;
79466;SPS30;68933;49.726;9.226;2024-02-26T02:59:28;5.1;;5.1;4.8;;;;;;
79466;SPS30;68933;49.726;9.226;2024-02-26T03:01:41;5.1;;5.1;4.8;;;;;;
79466;SPS30;68933;49.726;9.226;2024-02-26T03:03:54;5.1;;5.1;4.8;;;;;;
79466;SPS30;68933;49.726;9.226;2024-02-26T03:06:07;5.6;;5.6;5.3;;;;;;
79466;SPS30;68933;49.726;9.226;2024-02-26T03:08:20;5.6;;5.6;5.3;;;;;;
79466;SPS30;68933;49.726;9.226;2024-02-26T03:10:33;5;;5;4.8;;;;;;
79466;SPS30;68933;49.726;9.226;2024-02-26T03:12:46;5;;5;4.8;;;;;;
79466;SPS30;68933;49.726;9.226;2024-02-26T03:14:59;5.9;;5.9;5.6;;;;;;
79466;SPS30;68933;49.726;9.226;2024-02-26T03:17:12;5.9;;5.9;5.6;;;;;;
79466;SPS30;68933;49.726;9.226;2024-02-26T03:19:25;5.9;;5.9;5.6;;;;;;
79466;SPS30;68933;49.726;9.226;2024-02-26T03:21:38;5.5;;5.5;5.3;;;;;;
79466;SPS30;68933;49.726;9.226;2024-02-26T03:23:51;5.5;;5.5;5.3;;;;;;
79466;SPS30;68933;49.726;9.226;2024-02-26T03:26:04;5.7;;5.7;5.5;;;;;;
79466;SPS30;68933;49.726;9.226;2024-02-26T03:28:17;5.7;;5.7;5.5;;;;;;
79466;SPS30;68933;49.726;9.226;2024-02-26T03:30:30;5.2;;5.2;5;;;;;;
79466;SPS30;68933;49.726;9.226;2024-02-26T03:32:43;5.2;;5.2;5;;;;;;
79466;SPS30;68933;49.726;9.226;2024-02-26T03:34:56;6;;6;5.7;;;;;;
79466;SPS30;68933;49.726;9.226;2024-02-26T03:37:09;6;;6;5.7;;;;;;
79466;SPS30;68933;49.726;9.226;2024-02-26T03:39:22;5.6;;5.6;5.4;;;;;;
79466;SPS30;68933;49.726;9.226;2024-02-26T03:41:35;5.6;;5.6;5.4;;;;;;
79466;SPS30;68933;49.726;9.226;2024-02-26T03:43:48;5.9;;5.9;5.6;;;;;;
79466;SPS30;68933;49.726;9.226;2024-02-26T03:46:01;5.9;;5.9;5.6;;;;;;
79466;SPS30;68933;49.726;9.226;2024-02-26T03:48:14;5.9;;5.9;5.6;;;;;;
79466;SPS30;68933;49.726;9.226;2024-02-26T03:50:27;5.6;;5.6;5.3;;;;;;
79466;SPS30;68933;49.726;9.226;2024-02-26T03:52:40;5.6;;5.6;5.3;;;;;;
79466;SPS30;68933;49.726;9.226;2024-02-26T03:54:53;6;;6;5.7;;;;;;
79466;SPS30;68933;49.726;9.226;2024-02-26T03:57:06;6;;6;5.7;;;;;;
79466;SPS30;68933;49.726;9.226;2024-02-26T03:59:19;6;;6;5.7;;;;;;
79466;SPS30;68933;49.726;9.226;2024-02-26T04:01:32;6;;6;5.7;;;;;;
79466;SPS30;68933;49.726;9.226;2024-02-26T04:03:45;5.5;;5.5;5.3;;;;;;
79466;SPS30;68933;49.726;9.226;2024-02-26T04:05:58;5.5;;5.5;5.3;;;;;;
79466;SPS30;68933;49.726;9.226;2024-02-26T04:08:11;5.5;;5.5;5.3;;;;;;
79466;SPS30;68933;49.726;9.226;2024-02-26T04:10:24;5.7;;5.7;5.4;;;;;;
79466;SPS30;68933;49.726;9.226;2024-02-26T04:12:38;5.7;;5.7;5.4;;;;;;
79466;SPS30;68933;49.726;9.226;2024-02-26T04:14:50;5.4;;5.4;5.1;;;;;;
79466;SPS30;68933;49.726;9.226;2024-02-26T04:17:03;5.4;;5.4;5.1;;;;;;
79466;SPS30;68933;49.726;9.226;2024-02-26T04:19:16;5.3;;5.3;5;;;;;;
79466;SPS30;68933;49.726;9.226;2024-02-26T04:21:29;5.3;;5.3;5;;;;;;
79466;SPS30;68933;49.726;9.226;2024-02-26T04:23:42;5.9;;5.9;5.6;;;;;;
79466;SPS30;68933;49.726;9.226;2024-02-26T04:25:55;5.9;;5.9;5.6;;;;;;
79466;SPS30;68933;49.726;9.226;2024-02-26T04:28:08;5.9;;5.9;5.6;;;;;;
79466;SPS30;68933;49.726;9.226;2024-02-26T04:30:21;5.8;;5.8;5.5;;;;;;
79466;SPS30;68933;49.726;9.226;2024-02-26T04:32:34;5.8;;5.8;5.5;;;;;;
79466;SPS30;68933;49.726;9.226;2024-02-26T04:34:47;6.7;;6.7;6.4;;;;;;
79466;SPS30;68933;49.726;9.226;2024-02-26T04:37:00;6.7;;6.7;6.4;;;;;;
79466;SPS30;68933;49.726;9.226;2024-02-26T04:39:13;6.4;;6.4;6.1;;;;;;
79466;SPS30;68933;49.726;9.226;2024-02-26T04:41:26;6.4;;6.4;6.1;;;;;;
79466;SPS30;68933;49.726;9.226;2024-02-26T04:43:39;6.4;;6.4;6.1;;;;;;
79466;SPS30;68933;49.726;9.226;2024-02-26T04:45:52;6.6;;6.6;6.3;;;;;;
79466;SPS30;68933;49.726;9.226;2024-02-26T04:48:05;6.6;;6.6;6.3;;;;;;
79466;SPS30;68933;49.726;9.226;2024-02-26T04:50:18;5.8;;5.8;5.6;;;;;;
79466;SPS30;68933;49.726;9.226;2024-02-26T04:52:31;5.8;;5.8;5.6;;;;;;
79466;SPS30;68933;49.726;9.226;2024-02-26T04:54:44;5.8;;5.8;5.6;;;;;;
79466;SPS30;68933;49.726;9.226;2024-02-26T04:56:57;6.3;;6.3;6;;;;;;
79466;SPS30;68933;49.726;9.226;2024-02-26T04:59:10;6.3;;6.3;6;;;;;;
79466;SPS30;68933;49.726;9.226;2024-02-26T05:01:23;7.5;;7.5;7.1;;;;;;
79466;SPS30;68933;49.726;9.226;2024-02-26T05:03:36;7.5;;7.5;7.1;;;;;;
79466;SPS30;68933;49.726;9.226;2024-02-26T05:05:49;7.5;;7.5;7.1;;;;;;
79466;SPS30;68933;49.726;9.226;2024-02-26T05:08:02;6.3;;6.3;6;;;;;;
79466;SPS30;68933;49.726;9.226;2024-02-26T05:10:15;6.3;;6.3;6;;;;;;
79466;SPS30;68933;49.726;9.226;2024-02-26T05:12:28;6;;6;5.7;;;;;;
79466;SPS30;68933;49.726;9.226;2024-02-26T05:14:41;6;;6;5.7;;;;;;
79466;SPS30;68933;49.726;9.226;2024-02-26T05:16:54;7.1;;7.1;6.8;;;;;;
79466;SPS30;68933;49.726;9.226;2024-02-26T05:19:07;7.1;;7.1;6.8;;;;;;
79466;SPS30;68933;49.726;9.226;2024-02-26T05:21:20;7.1;;7.1;6.8;;;;;;
79466;SPS30;68933;49.726;9.226;2024-02-26T05:23:33;6;;6;5.7;;;;;;
79466;SPS30;68933;49.726;9.226;2024-02-26T05:25:46;6;;6;5.7;;;;;;
79466;SPS30;68933;49.726;9.226;2024-02-26T05:27:59;5.2;;5.2;5;;;;;;
79466;SPS30;68933;49.726;9.226;2024-02-26T05:30:12;5.2;;5.2;5;;;;;;
79466;SPS30;68933;49.726;9.226;2024-02-26T05:32:25;5.2;;5.2;5;;;;;;
79466;SPS30;68933;49.726;9.226;2024-02-26T05:34:38;5.4;;5.4;5.2;;;;;;
79466;SPS30;68933;49.726;9.226;2024-02-26T05:36:51;5.4;;5.4;5.2;;;;;;
79466;SPS30;68933;49.726;9.226;2024-02-26T05:39:04;5.5;;5.5;5.2;;;;;;
79466;SPS30;68933;49.726;9.226;2024-02-26T05:41:17;5.5;;5.5;5.2;;;;;;
79466;SPS30;68933;49.726;9.226;2024-02-26T05:43:30;5;;5;4.8;;;;;;
79466;SPS30;68933;49.726;9.226;2024-02-26T05:45:43;5;;5;4.8;;;;;;
79466;SPS30;68933;49.726;9.226;2024-02-26T05:47:56;5;;5;4.8;;;;;;
79466;SPS30;68933;49.726;9.226;2024-02-26T05:50:09;4.9;;4.9;4.7;;;;;;
79466;SPS30;68933;49.726;9.226;2024-02-26T05:52:22;4.9;;4.9;4.7;;;;;;
79466;SPS30;68933;49.726;9.226;2024-02-26T05:54:35;4.9;;4.9;4.7;;;;;;
79466;SPS30;68933;49.726;9.226;2024-02-26T05:56:48;4.9;;4.9;4.7;;;;;;
79466;SPS30;68933;49.726;9.226;2024-02-26T05:59:01;6.4;;6.4;6.1;;;;;;
79466;SPS30;68933;49.726;9.226;2024-02-26T06:01:15;6.4;;6.4;6.1;;;;;;
79466;SPS30;68933;49.726;9.226;2024-02-26T06:03:27;6.4;;6.4;6.1;;;;;;
79466;SPS30;68933;49.726;9.226;2024-02-26T06:05:40;6.4;;6.4;6.1;;;;;;
79466;SPS30;68933;49.726;9.226;2024-02-26T06:07:53;6.4;;6.4;6.1;;;;;;
79466;SPS30;68933;49.726;9.226;2024-02-26T06:10:06;5;;5;4.8;;;;;;
79466;SPS30;68933;49.726;9.226;2024-02-26T06:12:19;5;;5;4.8;;;;;;
79466;SPS30;68933;49.726;9.226;2024-02-26T06:14:32;5.7;;5.7;5.5;;;;;;
79466;SPS30;68933;49.726;9.226;2024-02-26T06:16:45;5.7;;5.7;5.5;;;;;;
79466;SPS30;68933;49.726;9.226;2024-02-26T06:18:58;5.2;;5.2;5;;;;;;
79466;SPS30;68933;49.726;9.226;2024-02-26T06:21:11;5.2;;5.2;5;;;;;;
79466;SPS30;68933;49.726;9.226;2024-02-26T06:23:24;5.2;;5.2;5;;;;;;
79466;SPS30;68933;49.726;9.226;2024-02-26T06:25:37;4.8;;4.8;4.5;;;;;;
79466;SPS30;68933;49.726;9.226;2024-02-26T06:27:50;4.8;;4.8;4.5;;;;;;
79466;SPS30;68933;49.726;9.226;2024-02-26T06:30:03;5.2;;5.2;5;;;;;;
79466;SPS30;68933;49.726;9.226;2024-02-26T06:32:16;5.2;;5.2;5;;;;;;
79466;SPS30;68933;49.726;9.226;2024-02-26T06:34:29;5.3;;5.3;5;;;;;;
79466;SPS30;68933;49.726;9.226;2024-02-26T06:36:42;5.3;;5.3;5;;;;;;
79466;SPS30;68933;49.726;9.226;2024-02-26T06:38:55;7.6;;7.6;7.3;;;;;;
79466;SPS30;68933;49.726;9.226;2024-02-26T06:41:08;7.6;;7.6;7.3;;;;;;
79466;SPS30;68933;49.726;9.226;2024-02-26T06:43:21;5.7;;5.7;5.4;;;;;;
79466;SPS30;68933;49.726;9.226;2024-02-26T06:45:34;5.7;;5.7;5.4;;;;;;
79466;SPS30;68933;49.726;9.226;2024-02-26T06:47:47;5.7;;5.7;5.4;;;;;;
79466;SPS30;68933;49.726;9.226;2024-02-26T06:50:00;5.9;;5.9;5.6;;;;;;
79466;SPS30;68933;49.726;9.226;2024-02-26T06:52:13;5.9;;5.9;5.6;;;;;;
79466;SPS30;68933;49.726;9.226;2024-02-26T06:54:26;5.2;;5.2;4.9;;;;;;
79466;SPS30;68933;49.726;9.226;2024-02-26T06:56:39;5.2;;5.2;4.9;;;;;;
79466;SPS30;68933;49.726;9.226;2024-02-26T06:58:52;6;;6;5.8;;;;;;
79466;SPS30;68933;49.726;9.226;2024-02-26T07:01:05;6;;6;5.8;;;;;;
79466;SPS30;68933;49.726;9.226;2024-02-26T07:03:18;7.9;;7.9;7.5;;;;;;
79466;SPS30;68933;49.726;9.226;2024-02-26T07:05:31;7.9;;7.9;7.5;;;;;;
79466;SPS30;68933;49.726;9.226;2024-02-26T07:07:44;7.9;;7.9;7.5;;;;;;
79466;SPS30;68933;49.726;9.226;2024-02-26T07:09:57;6.4;;6.4;6.1;;;;;;
79466;SPS30;68933;49.726;9.226;2024-02-26T07:12:10;6.4;;6.4;6.1;;;;;;
79466;SPS30;68933;49.726;9.226;2024-02-26T07:14:23;5.9;;5.9;5.6;;;;;;
79466;SPS30;68933;49.726;9.226;2024-02-26T07:16:36;5.9;;5.9;5.6;;;;;;
79466;SPS30;68933;49.726;9.226;2024-02-26T07:18:49;6.2;;6.2;5.9;;;;;;
79466;SPS30;68933;49.726;9.226;2024-02-26T07:21:02;6.2;;6.2;5.9;;;;;;
79466;SPS30;68933;49.726;9.226;2024-02-26T07:23:15;6;;6;5.7;;;;;;
79466;SPS30;68933;49.726;9.226;2024-02-26T07:25:28;6;;6;5.7;;;;;;
79466;SPS30;68933;49.726;9.226;2024-02-26T07:27:41;6.2;;6.2;5.9;;;;;;
79466;SPS30;68933;49.726;9.226;2024-02-26T07:29:54;6.2;;6.2;5.9;;;;;;
79466;SPS30;68933;49.726;9.226;2024-02-26T07:32:07;6.4;;6.4;6.1;;;;;;
79466;SPS30;68933;49.726;9.226;2024-02-26T07:34:20;6.4;;6.4;6.1;;;;;;
79466;SPS30;68933;49.726;9.226;2024-02-26T07:36:33;6.4;;6.4;6.1;;;;;;
79466;SPS30;68933;49.726;9.226;2024-02-26T07:38:46;6.1;;6.1;5.8;;;;;;
79466;SPS30;68933;49.726;9.226;2024-02-26T07:41:01;6.1;;6.1;5.8;;;;;;
79466;SPS30;68933;49.726;9.226;2024-02-26T07:43:12;6.9;;6.9;6.6;;;;;;
79466;SPS30;68933;49.726;9.226;2024-02-26T07:45:25;6.9;;6.9;6.6;;;;;;
79466;SPS30;68933;49.726;9.226;2024-02-26T07:47:38;6.9;;6.9;6.6;;;;;;
79466;SPS30;68933;49.726;9.226;2024-02-26T07:49:51;6;;6;5.7;;;;;;
79466;SPS30;68933;49.726;9.226;2024-02-26T07:52:04;6;;6;5.7;;;;;;
79466;SPS30;68933;49.726;9.226;2024-02-26T07:54:17;7.8;;7.8;7.4;;;;;;
79466;SPS30;68933;49.726;9.226;2024-02-26T07:56:30;7.8;;7.8;7.4;;;;;;
79466;SPS30;68933;49.726;9.226;2024-02-26T07:58:43;7.8;;7.8;7.4;;;;;;
79466;SPS30;68933;49.726;9.226;2024-02-26T08:00:56;7.7;;7.7;7.4;;;;;;
79466;SPS30;68933;49.726;9.226;2024-02-26T08:03:09;7.7;;7.7;7.4;;;;;;
79466;SPS30;68933;49.726;9.226;2024-02-26T08:05:22;6.3;;6.3;5.9;;;;;;
79466;SPS30;68933;49.726;9.226;2024-02-26T08:07:35;6.3;;6.3;5.9;;;;;;
79466;SPS30;68933;49.726;9.226;2024-02-26T08:09:48;6.3;;6.3;5.9;;;;;;
79466;SPS30;68933;49.726;9.226;2024-02-26T08:12:01;6.6;;6.6;6.3;;;;;;
79466;SPS30;68933;49.726;9.226;2024-02-26T08:14:14;6.6;;6.6;6.3;;;;;;
79466;SPS30;68933;49.726;9.226;2024-02-26T08:16:27;5.9;;5.9;5.6;;;;;;
79466;SPS30;68933;49.726;9.226;2024-02-26T08:18:40;5.9;;5.9;5.6;;;;;;
79466;SPS30;68933;49.726;9.226;2024-02-26T08:20:53;5.9;;5.9;5.6;;;;;;
79466;SPS30;68933;49.726;9.226;2024-02-26T08:23:06;6.1;;6.1;5.8;;;;;;
79466;SPS30;68933;49.726;9.226;2024-02-26T08:25:19;6.6;;6.6;6.3;;;;;;
79466;SPS30;68933;49.726;9.226;2024-02-26T08:27:32;6.6;;6.6;6.3;;;;;;
79466;SPS30;68933;49.726;9.226;2024-02-26T08:29:45;6.6;;6.6;6.3;;;;;;
79466;SPS30;68933;49.726;9.226;2024-02-26T08:31:58;6.1;;6.1;5.8;;;;;;
79466;SPS30;68933;49.726;9.226;2024-02-26T08:34:11;6.1;;6.1;5.8;;;;;;
79466;SPS30;68933;49.726;9.226;2024-02-26T08:36:24;8.8;;8.8;8.4;;;;;;
79466;SPS30;68933;49.726;9.226;2024-02-26T08:38:37;8.8;;8.8;8.4;;;;;;
79466;SPS30;68933;49.726;9.226;2024-02-26T08:40:50;8.8;;8.8;8.4;;;;;;
79466;SPS30;68933;49.726;9.226;2024-02-26T08:43:03;8.6;;8.6;8.2;;;;;;
79466;SPS30;68933;49.726;9.226;2024-02-26T08:45:16;8.6;;8.6;8.2;;;;;;
79466;SPS30;68933;49.726;9.226;2024-02-26T08:47:29;9.7;;9.7;9.3;;;;;;
79466;SPS30;68933;49.726;9.226;2024-02-26T08:49:42;9.7;;9.7;9.3;;;;;;
79466;SPS30;68933;49.726;9.226;2024-02-26T08:51:55;8.4;;8.4;8;;;;;;
79466;SPS30;68933;49.726;9.226;2024-02-26T08:54:08;8.4;;8.4;8;;;;;;
79466;SPS30;68933;49.726;9.226;2024-02-26T08:56:21;8.4;;8.4;8;;;;;;
79466;SPS30;68933;49.726;9.226;2024-02-26T08:58:34;8.8;;8.8;8.4;;;;;;
79466;SPS30;68933;49.726;9.226;2024-02-26T09:00:47;8.8;;8.8;8.4;;;;;;
79466;SPS30;68933;49.726;9.226;2024-02-26T09:03:00;8.7;;8.7;8.3;;;;;;
79466;SPS30;68933;49.726;9.226;2024-02-26T09:05:13;8.7;;8.7;8.3;;;;;;
79466;SPS30;68933;49.726;9.226;2024-02-26T09:07:26;7.9;;7.9;7.6;;;;;;
79466;SPS30;68933;49.726;9.226;2024-02-26T09:09:39;7.9;;7.9;7.6;;;;;;
79466;SPS30;68933;49.726;9.226;2024-02-26T09:11:52;7.9;;7.9;7.6;;;;;;
79466;SPS30;68933;49.726;9.226;2024-02-26T09:14:05;7.7;;7.7;7.4;;;;;;
79466;SPS30;68933;49.726;9.226;2024-02-26T09:16:18;7.7;;7.7;7.4;;;;;;
79466;SPS30;68933;49.726;9.226;2024-02-26T09:18:31;8.8;;8.8;8.4;;;;;;
79466;SPS30;68933;49.726;9.226;2024-02-26T09:20:44;8.8;;8.8;8.4;;;;;;
79466;SPS30;68933;49.726;9.226;2024-02-26T09:22:57;7.9;;7.9;7.5;;;;;;
79466;SPS30;68933;49.726;9.226;2024-02-26T09:25:10;7.9;;7.9;7.5;;;;;;
79466;SPS30;68933;49.726;9.226;2024-02-26T09:27:23;7.9;;7.9;7.5;;;;;;
79466;SPS30;68933;49.726;9.226;2024-02-26T09:29:36;8.7;;8.6;8.2;;;;;;
79466;SPS30;68933;49.726;9.226;2024-02-26T09:31:49;8.7;;8.6;8.2;;;;;;
79466;SPS30;68933;49.726;9.226;2024-02-26T09:34:02;9.2;;9.2;8.7;;;;;;
79466;SPS30;68933;49.726;9.226;2024-02-26T09:36:15;9.2;;9.2;8.7;;;;;;
79466;SPS30;68933;49.726;9.226;2024-02-26T09:38:28;8.9;;8.9;8.5;;;;;;
79466;SPS30;68933;49.726;9.226;2024-02-26T09:40:41;8.9;;8.9;8.5;;;;;;
79466;SPS30;68933;49.726;9.226;2024-02-26T09:42:56;8.3;;8.3;7.9;;;;;;
79466;SPS30;68933;49.726;9.226;2024-02-26T09:45:07;8.3;;8.3;7.9;;;;;;
79466;SPS30;68933;49.726;9.226;2024-02-26T09:47:20;8.3;;8.3;7.9;;;;;;
79466;SPS30;68933;49.726;9.226;2024-02-26T09:49:33;7.2;;7.2;6.9;;;;;;
79466;SPS30;68933;49.726;9.226;2024-02-26T09:51:46;7.2;;7.2;6.9;;;;;;
79466;SPS30;68933;49.726;9.226;2024-02-26T09:53:59;7.4;;7.4;7;;;;;;
79466;SPS30;68933;49.726;9.226;2024-02-26T09:56:12;7.4;;7.4;7;;;;;;
79466;SPS30;68933;49.726;9.226;2024-02-26T09:58:25;8;;7.9;7.4;;;;;;
79466;SPS30;68933;49.726;9.226;2024-02-26T10:00:38;8;;7.9;7.4;;;;;;
79466;SPS30;68933;49.726;9.226;2024-02-26T10:02:51;8.4;;8.4;8;;;;;;
79466;SPS30;68933;49.726;9.226;2024-02-26T10:05:04;8.4;;8.4;8;;;;;;
79466;SPS30;68933;49.726;9.226;2024-02-26T10:07:17;9;;9;8.6;;;;;;
79466;SPS30;68933;49.726;9.226;2024-02-26T10:09:30;9;;9;8.6;;;;;;
79466;SPS30;68933;49.726;9.226;2024-02-26T10:11:43;9;;9;8.6;;;;;;
79466;SPS30;68933;49.726;9.226;2024-02-26T10:13:56;8.5;;8.5;8.1;;;;;;
79466;SPS30;68933;49.726;9.226;2024-02-26T10:16:09;8.5;;8.5;8.1;;;;;;
79466;SPS30;68933;49.726;9.226;2024-02-26T10:18:22;9.1;;9.1;8.7;;;;;;
79466;SPS30;68933;49.726;9.226;2024-02-26T10:20:35;9.1;;9.1;8.7;;;;;;
79466;SPS30;68933;49.726;9.226;2024-02-26T10:22:48;8.9;;8.9;8.4;;;;;;
79466;SPS30;68933;49.726;9.226;2024-02-26T10:25:01;8.9;;8.9;8.4;;;;;;
79466;SPS30;68933;49.726;9.226;2024-02-26T10:27:14;9.9;;9.8;9.3;;;;;;
79466;SPS30;68933;49.726;9.226;2024-02-26T10:29:27;9.9;;9.8;9.3;;;;;;
79466;SPS30;68933;49.726;9.226;2024-02-26T10:31:41;10;;9.9;9.4;;;;;;
79466;SPS30;68933;49.726;9.226;2024-02-26T10:33:55;10;;9.9;9.4;;;;;;
79466;SPS30;68933;49.726;9.226;2024-02-26T10:36:06;9.1;;9.1;8.7;;;;;;
79466;SPS30;68933;49.726;9.226;2024-02-26T10:38:19;9.1;;9.1;8.7;;;;;;
79466;SPS30;68933;49.726;9.226;2024-02-26T10:40:32;9.1;;9.1;8.7;;;;;;
79466;SPS30;68933;49.726;9.226;2024-02-26T10:42:45;9.2;;9.2;8.8;;;;;;
79466;SPS30;68933;49.726;9.226;2024-02-26T10:44:58;9.2;;9.2;8.8;;;;;;
79466;SPS30;68933;49.726;9.226;2024-02-26T10:47:11;13.2;;13.2;12.5;;;;;;
79466;SPS30;68933;49.726;9.226;2024-02-26T10:49:24;13.2;;13.2;12.5;;;;;;
79466;SPS30;68933;49.726;9.226;2024-02-26T10:51:37;13.2;;13.2;12.5;;;;;;
79466;SPS30;68933;49.726;9.226;2024-02-26T10:53:50;12.1;;12.1;11.5;;;;;;
79466;SPS30;68933;49.726;9.226;2024-02-26T10:56:03;12.1;;12.1;11.5;;;;;;
79466;SPS30;68933;49.726;9.226;2024-02-26T10:58:16;32;;31.5;29.7;;;;;;
79466;SPS30;68933;49.726;9.226;2024-02-26T11:00:29;32;;31.5;29.7;;;;;;
79466;SPS30;68933;49.726;9.226;2024-02-26T11:02:42;32;;31.5;29.7;;;;;;
79466;SPS30;68933;49.726;9.226;2024-02-26T11:04:55;43.4;;42.7;40.1;;;;;;
79466;SPS30;68933;49.726;9.226;2024-02-26T11:07:09;43.4;;42.7;40.1;;;;;;
79466;SPS30;68933;49.726;9.226;2024-02-26T11:09:21;12.3;;12.3;11.8;;;;;;
79466;SPS30;68933;49.726;9.226;2024-02-26T11:11:34;12.3;;12.3;11.8;;;;;;
79466;SPS30;68933;49.726;9.226;2024-02-26T11:13:47;11;;11;10.5;;;;;;
79466;SPS30;68933;49.726;9.226;2024-02-26T11:16:00;11;;11;10.5;;;;;;
79466;SPS30;68933;49.726;9.226;2024-02-26T11:18:13;16.6;;16.5;15.6;;;;;;
79466;SPS30;68933;49.726;9.226;2024-02-26T11:20:26;16.6;;16.5;15.6;;;;;;
79466;SPS30;68933;49.726;9.226;2024-02-26T11:22:39;12.7;;12.7;12.1;;;;;;
79466;SPS30;68933;49.726;9.226;2024-02-26T11:24:52;12.7;;12.7;12.1;;;;;;
79466;SPS30;68933;49.726;9.226;2024-02-26T11:27:05;12.7;;12.7;12.1;;;;;;
79466;SPS30;68933;49.726;9.226;2024-02-26T11:29:21;9.5;;9.5;9;;;;;;
79466;SPS30;68933;49.726;9.226;2024-02-26T11:31:31;9.5;;9.5;9;;;;;;
79466;SPS30;68933;49.726;9.226;2024-02-26T11:33:44;12.1;;12.1;11.6;;;;;;
79466;SPS30;68933;49.726;9.226;2024-02-26T11:35:57;12.1;;12.1;11.6;;;;;;
79466;SPS30;68933;49.726;9.226;2024-02-26T11:38:12;9.5;;9.5;9.1;;;;;;
79466;SPS30;68933;49.726;9.226;2024-02-26T11:40:23;9.5;;9.5;9.1;;;;;;
79466;SPS30;68933;49.726;9.226;2024-02-26T11:42:36;8.9;;8.9;8.5;;;;;;
79466;SPS30;68933;49.726;9.226;2024-02-26T11:44:49;8.9;;8.9;8.5;;;;;;
79466;SPS30;68933;49.726;9.226;2024-02-26T11:47:10;8.9;;8.9;8.5;;;;;;
79466;SPS30;68933;49.726;9.226;2024-02-26T11:49:30;9.3;;9.3;8.9;;;;;;
79466;SPS30;68933;49.726;9.226;2024-02-26T11:51:32;9.3;;9.3;8.9;;;;;;
79466;SPS30;68933;49.726;9.226;2024-02-26T11:53:45;8.5;;8.5;8.1;;;;;;
79466;SPS30;68933;49.726;9.226;2024-02-26T11:56:25;8.5;;8.5;8.1;;;;;;
79466;SPS30;68933;49.726;9.226;2024-02-26T11:58:07;9.3;;9.3;8.9;;;;;;
79466;SPS30;68933;49.726;9.226;2024-02-26T12:00:20;9.3;;9.3;8.9;;;;;;
79466;SPS30;68933;49.726;9.226;2024-02-26T12:02:41;10.3;;10.3;9.8;;;;;;
79466;SPS30;68933;49.726;9.226;2024-02-26T12:04:46;10.3;;10.3;9.8;;;;;;
79466;SPS30;68933;49.726;9.226;2024-02-26T12:07:00;12.7;;12.7;12.1;;;;;;
79466;SPS30;68933;49.726;9.226;2024-02-26T12:09:12;12.7;;12.7;12.1;;;;;;
79466;SPS30;68933;49.726;9.226;2024-02-26T12:11:27;12.1;;12.1;11.5;;;;;;
79466;SPS30;68933;49.726;9.226;2024-02-26T12:13:38;12.1;;12.1;11.5;;;;;;
79466;SPS30;68933;49.726;9.226;2024-02-26T12:15:54;12.1;;12.1;11.5;;;;;;
79466;SPS30;68933;49.726;9.226;2024-02-26T12:18:05;8;;8;7.6;;;;;;
79466;SPS30;68933;49.726;9.226;2024-02-26T12:20:17;8;;8;7.6;;;;;;
79466;SPS30;68933;49.726;9.226;2024-02-26T12:22:30;9.6;;9.6;9.2;;;;;;
79466;SPS30;68933;49.726;9.226;2024-02-26T12:24:43;9.6;;9.6;9.2;;;;;;
79466;SPS30;68933;49.726;9.226;2024-02-26T12:26:56;9.6;;9.6;9.2;;;;;;
79466;SPS30;68933;49.726;9.226;2024-02-26T12:29:09;10.5;;10.5;10;;;;;;
79466;SPS30;68933;49.726;9.226;2024-02-26T12:31:22;10.5;;10.5;10;;;;;;
79466;SPS30;68933;49.726;9.226;2024-02-26T12:33:35;10.2;;10.2;9.7;;;;;;
79466;SPS30;68933;49.726;9.226;2024-02-26T12:35:48;10.2;;10.2;9.7;;;;;;
79466;SPS30;68933;49.726;9.226;2024-02-26T12:38:01;10.2;;10.2;9.7;;;;;;
79466;SPS30;68933;49.726;9.226;2024-02-26T12:40:14;9.1;;9.1;8.7;;;;;;
79466;SPS30;68933;49.726;9.226;2024-02-26T12:42:27;9.1;;9.1;8.7;;;;;;
79466;SPS30;68933;49.726;9.226;2024-02-26T12:44:40;9.6;;9.6;9.2;;;;;;
79466;SPS30;68933;49.726;9.226;2024-02-26T12:46:59;9.6;;9.6;9.2;;;;;;